Time;durP1;ratioP1;P1;durP2;ratioP2;P2;SDS_P1;SDS_P2;PMS_P1;PMS_P2;Temp;Humidity;BMP_temperature;BMP_pressure;BME280_temperature;BME280_humidity;BME280_pressure;Samples;Min_cycle;Max_cycle;Signal;HPM_P1;HPM_P2
2022/01/31 00:02:13;;;;;;;10.37;4.57;;;8.80;51.20;;;;;;4967609;28;20263;-43
2022/01/31 00:04:39;;;;;;;12.47;4.60;;;8.80;51.60;;;;;;4967982;28;20201;-42
2022/01/31 00:07:05;;;;;;;12.83;4.80;;;8.90;51.10;;;;;;4972059;28;20435;-42
2022/01/31 00:09:30;;;;;;;11.10;4.87;;;8.90;51.10;;;;;;4968823;28;20191;-42
2022/01/31 00:12:04;;;;;;;10.73;4.53;;;8.80;51.10;;;;;;4969079;28;20202;-42
2022/01/31 00:14:50;;;;;;;13.13;5.17;;;8.80;51.20;;;;;;4973120;28;20206;-42
2022/01/31 00:17:16;;;;;;;8.17;4.50;;;8.80;51.30;;;;;;4969494;28;20526;-43
2022/01/31 00:19:43;;;;;;;15.00;4.90;;;8.80;51.50;;;;;;4973716;28;20473;-42
2022/01/31 00:22:11;;;;;;;17.87;4.67;;;8.80;51.40;;;;;;4969967;28;20439;-42
2022/01/31 00:24:38;;;;;;;11.30;4.40;;;8.90;51.30;;;;;;4964579;28;20505;-42
2022/01/31 00:27:06;;;;;;;7.47;4.40;;;8.80;51.30;;;;;;4967207;28;20446;-42
2022/01/31 00:29:32;;;;;;;10.57;4.00;;;8.80;51.50;;;;;;4969606;28;20443;-42
2022/01/31 00:31:58;;;;;;;9.70;4.87;;;8.70;51.40;;;;;;4965734;28;21016;-45
2022/01/31 00:34:23;;;;;;;9.13;4.60;;;8.70;51.50;;;;;;4969240;28;20199;-43
2022/01/31 00:36:49;;;;;;;10.30;4.90;;;8.70;51.70;;;;;;4968223;28;21176;-42
2022/01/31 00:39:15;;;;;;;9.37;4.63;;;8.70;51.90;;;;;;4968307;28;20199;-42
2022/01/31 00:41:41;;;;;;;7.27;4.63;;;8.70;52.10;;;;;;4967481;28;20848;-42
2022/01/31 00:44:25;;;;;;;8.60;4.47;;;8.60;52.20;;;;;;4973850;28;20214;-42
2022/01/31 00:46:59;;;;;;;7.23;4.33;;;8.60;52.40;;;;;;4968568;28;20576;-43
2022/01/31 00:51:57;;;;;;;6.80;4.50;;;8.60;52.40;;;;;;4965165;28;20468;-43
2022/01/31 00:54:22;;;;;;;13.90;4.63;;;8.60;52.40;;;;;;4965806;28;20435;-42
2022/01/31 00:56:50;;;;;;;11.07;4.10;;;8.60;53.00;;;;;;4968943;28;20237;-43
2022/01/31 00:59:15;;;;;;;11.27;4.87;;;8.60;52.50;;;;;;4969913;28;20195;-42
2022/01/31 01:01:42;;;;;;;13.43;5.50;;;8.70;52.60;;;;;;4964242;28;20465;-43
2022/01/31 01:04:07;;;;;;;10.43;5.23;;;8.70;52.60;;;;;;4969290;28;20951;-42
2022/01/31 01:06:33;;;;;;;9.43;4.60;;;8.70;52.60;;;;;;4969151;28;20442;-42
2022/01/31 01:08:59;;;;;;;11.30;4.80;;;8.70;52.50;;;;;;4966414;28;20207;-42
2022/01/31 01:11:24;;;;;;;13.90;5.10;;;8.80;52.60;;;;;;4967974;28;20267;-43
2022/01/31 01:13:50;;;;;;;12.50;4.60;;;8.80;52.70;;;;;;4967769;28;20278;-43
2022/01/31 01:16:16;;;;;;;13.73;4.70;;;8.80;52.70;;;;;;4972378;28;20427;-43
2022/01/31 01:18:41;;;;;;;13.47;5.20;;;8.80;52.70;;;;;;4971646;28;20686;-43
2022/01/31 01:21:07;;;;;;;10.57;6.97;;;8.80;52.80;;;;;;4968562;28;20266;-43
2022/01/31 01:23:33;;;;;;;13.67;5.47;;;8.80;52.80;;;;;;4966528;28;20228;-43
2022/01/31 01:25:58;;;;;;;10.50;4.67;;;8.80;52.70;;;;;;4972641;28;20194;-42
2022/01/31 01:28:25;;;;;;;12.53;5.73;;;8.90;52.80;;;;;;4967809;28;20192;-43
2022/01/31 01:30:51;;;;;;;11.23;5.60;;;8.80;52.80;;;;;;4969063;28;20191;-42
2022/01/31 01:33:22;;;;;;;10.23;5.30;;;8.80;52.80;;;;;;4966200;28;20453;-43
2022/01/31 01:35:50;;;;;;;14.87;5.00;;;8.80;53.10;;;;;;4970551;28;20450;-43
2022/01/31 01:38:17;;;;;;;13.57;4.80;;;8.80;53.10;;;;;;4970600;28;20532;-43
2022/01/31 01:40:45;;;;;;;7.83;4.80;;;8.80;53.10;;;;;;4972212;28;20493;-42
2022/01/31 01:43:12;;;;;;;7.93;5.30;;;8.80;53.20;;;;;;4969165;28;20443;-42
2022/01/31 01:45:39;;;;;;;10.50;4.97;;;8.80;53.20;;;;;;4975253;28;20477;-42
2022/01/31 01:48:06;;;;;;;11.37;4.40;;;8.80;53.10;;;;;;4969082;28;20994;-42
2022/01/31 01:50:36;;;;;;;9.20;4.40;;;8.80;53.00;;;;;;4972426;28;20490;-42
2022/01/31 01:53:03;;;;;;;11.70;4.30;;;8.90;53.00;;;;;;4968828;28;20458;-43
2022/01/31 01:55:29;;;;;;;10.00;4.07;;;8.90;53.00;;;;;;4971681;28;20447;-42
2022/01/31 01:57:56;;;;;;;9.57;4.27;;;8.80;53.00;;;;;;4971207;28;21000;-42
2022/01/31 02:00:27;;;;;;;8.60;4.83;;;8.50;53.50;;;;;;4971363;28;20448;-42
2022/01/31 02:02:54;;;;;;;10.70;4.93;;;8.40;54.10;;;;;;4971539;28;20947;-42
2022/01/31 02:05:20;;;;;;;8.27;6.10;;;8.40;54.40;;;;;;4970811;28;20450;-43
2022/01/31 02:07:46;;;;;;;20.20;5.20;;;8.60;54.20;;;;;;4968263;28;20442;-42
2022/01/31 02:10:13;;;;;;;10.23;4.80;;;8.60;54.10;;;;;;4971072;28;20782;-42
2022/01/31 02:12:47;;;;;;;6.57;4.87;;;8.70;53.90;;;;;;4969390;28;20192;-42
2022/01/31 02:15:13;;;;;;;12.30;4.87;;;8.70;53.60;;;;;;4969758;28;20451;-44
2022/01/31 02:17:39;;;;;;;9.80;4.53;;;8.70;53.80;;;;;;4971707;28;20581;-42
2022/01/31 02:20:08;;;;;;;11.60;5.10;;;8.80;53.90;;;;;;4969034;28;20586;-42
2022/01/31 02:22:35;;;;;;;11.00;4.27;;;8.90;53.80;;;;;;4972040;28;20934;-42
2022/01/31 02:25:00;;;;;;;15.80;4.70;;;8.60;54.10;;;;;;4969496;28;20915;-43
2022/01/31 02:27:27;;;;;;;9.30;4.57;;;8.70;54.10;;;;;;4968154;28;20542;-42
2022/01/31 02:29:53;;;;;;;8.30;4.43;;;8.80;53.90;;;;;;4969040;28;20459;-42
2022/01/31 02:32:22;;;;;;;11.53;4.07;;;8.70;53.70;;;;;;4971817;28;20450;-42
2022/01/31 02:34:48;;;;;;;9.13;4.10;;;8.70;54.00;;;;;;4968495;28;20203;-42
2022/01/31 02:37:14;;;;;;;9.97;4.43;;;8.50;54.30;;;;;;4967933;28;20485;-43
2022/01/31 02:39:39;;;;;;;8.53;3.80;;;8.60;54.30;;;;;;4973883;28;20777;-42
2022/01/31 02:42:05;;;;;;;8.57;3.80;;;8.80;54.10;;;;;;4976341;28;20302;-42
2022/01/31 02:44:31;;;;;;;9.70;4.07;;;8.90;53.90;;;;;;4968318;28;20282;-42
2022/01/31 02:46:57;;;;;;;11.00;4.30;;;9.00;53.60;;;;;;4969720;28;20199;-42
2022/01/31 02:49:27;;;;;;;7.70;4.30;;;9.10;53.50;;;;;;4973601;28;20195;-42
2022/01/31 02:52:00;;;;;;;9.43;4.53;;;9.10;53.40;;;;;;4970419;28;20439;-42
2022/01/31 02:54:27;;;;;;;12.07;4.37;;;9.10;53.40;;;;;;4969274;28;20450;-42
2022/01/31 02:56:53;;;;;;;5.70;4.40;;;9.10;53.50;;;;;;4971292;28;20490;-42
2022/01/31 02:59:19;;;;;;;16.03;4.40;;;9.10;53.60;;;;;;4969921;28;20465;-43
2022/01/31 03:01:44;;;;;;;7.33;3.53;;;9.00;53.60;;;;;;4968783;28;20271;-42
2022/01/31 03:04:10;;;;;;;9.43;4.53;;;9.10;53.60;;;;;;4973801;28;20213;-42
2022/01/31 03:06:38;;;;;;;8.23;4.03;;;9.00;53.60;;;;;;4967497;28;20203;-42
2022/01/31 03:09:04;;;;;;;9.20;4.20;;;9.00;53.60;;;;;;4969684;28;20231;-42
2022/01/31 03:11:30;;;;;;;8.20;3.70;;;8.90;53.80;;;;;;4967045;28;20486;-42
2022/01/31 03:13:56;;;;;;;11.63;5.20;;;8.80;53.70;;;;;;4969545;28;20966;-43
2022/01/31 03:16:21;;;;;;;7.20;4.43;;;8.70;53.90;;;;;;4974371;28;20514;-42
2022/01/31 03:18:47;;;;;;;10.57;5.00;;;8.90;53.90;;;;;;4973256;28;20195;-42
2022/01/31 03:21:14;;;;;;;9.97;4.70;;;8.90;53.80;;;;;;4972239;28;20647;-42
2022/01/31 03:23:39;;;;;;;9.37;3.90;;;8.90;54.10;;;;;;4969150;28;20191;-42
2022/01/31 03:26:05;;;;;;;7.90;3.70;;;8.80;53.80;;;;;;4968193;28;21816;-42
2022/01/31 03:28:31;;;;;;;8.63;3.87;;;8.80;53.90;;;;;;4969721;28;20231;-42
2022/01/31 03:30:56;;;;;;;9.40;4.07;;;8.90;53.90;;;;;;4969334;28;20206;-42
2022/01/31 03:33:22;;;;;;;7.77;4.40;;;8.90;53.70;;;;;;4969330;28;20192;-42
2022/01/31 03:35:47;;;;;;;11.87;4.83;;;8.90;53.50;;;;;;4970401;28;20279;-42
2022/01/31 03:38:13;;;;;;;9.27;4.73;;;8.80;53.70;;;;;;4969511;28;20231;-42
2022/01/31 03:40:39;;;;;;;9.43;4.20;;;8.60;53.90;;;;;;4969232;28;20231;-42
2022/01/31 03:43:04;;;;;;;7.13;3.30;;;8.70;54.00;;;;;;4969553;28;20195;-42
2022/01/31 03:45:33;;;;;;;16.27;4.10;;;8.50;54.20;;;;;;4967572;28;20310;-42
2022/01/31 03:48:00;;;;;;;9.67;4.13;;;8.50;54.40;;;;;;4970561;28;20218;-42
2022/01/31 03:50:27;;;;;;;10.10;4.17;;;8.50;54.50;;;;;;4969770;28;20478;-42
2022/01/31 03:52:53;;;;;;;9.50;4.40;;;8.50;54.40;;;;;;4968330;28;20450;-42
2022/01/31 03:55:20;;;;;;;9.53;4.73;;;8.50;54.50;;;;;;4967552;28;20478;-42
2022/01/31 03:57:46;;;;;;;8.67;4.30;;;8.50;54.30;;;;;;4968309;28;20516;-42
2022/01/31 04:00:14;;;;;;;7.57;3.80;;;8.40;54.50;;;;;;4971235;28;20450;-42
2022/01/31 04:02:41;;;;;;;7.20;3.90;;;8.40;54.60;;;;;;4968584;28;20449;-42
2022/01/31 04:05:07;;;;;;;9.90;4.50;;;8.50;54.60;;;;;;4967862;28;20557;-42
2022/01/31 04:07:33;;;;;;;9.00;4.23;;;8.50;54.50;;;;;;4964961;28;20461;-42
2022/01/31 04:09:59;;;;;;;8.13;3.80;;;8.60;54.40;;;;;;4968035;28;20449;-42
2022/01/31 04:12:24;;;;;;;5.63;3.60;;;8.60;54.30;;;;;;4969274;28;20245;-43
2022/01/31 04:14:51;;;;;;;6.80;3.97;;;8.60;54.20;;;;;;4968180;28;20222;-42
2022/01/31 04:17:19;;;;;;;7.53;3.77;;;8.70;54.20;;;;;;4967603;28;20226;-42
2022/01/31 04:19:46;;;;;;;7.50;4.03;;;8.60;54.20;;;;;;4966568;28;20490;-42
2022/01/31 04:22:15;;;;;;;12.00;4.20;;;8.60;54.40;;;;;;4967285;28;20946;-42
2022/01/31 04:24:41;;;;;;;12.07;4.97;;;8.50;54.30;;;;;;4968993;28;20462;-42
2022/01/31 04:27:08;;;;;;;5.23;3.80;;;8.50;54.40;;;;;;4970176;28;20534;-42
2022/01/31 04:29:38;;;;;;;14.70;4.07;;;8.50;54.40;;;;;;4977952;28;20504;-42
2022/01/31 04:32:04;;;;;;;8.70;3.67;;;8.50;54.60;;;;;;4966942;28;20450;-43
2022/01/31 04:34:31;;;;;;;7.43;4.03;;;8.50;54.50;;;;;;4968782;28;20883;-42
2022/01/31 04:36:58;;;;;;;7.00;4.40;;;8.40;54.80;;;;;;4966464;28;20525;-42
2022/01/31 04:39:24;;;;;;;6.67;3.90;;;8.40;54.70;;;;;;4969108;28;20453;-46
2022/01/31 04:41:50;;;;;;;5.90;3.60;;;8.20;55.00;;;;;;4972570;28;20496;-42
2022/01/31 04:44:17;;;;;;;8.77;3.80;;;8.30;55.10;;;;;;4968147;28;20530;-42
2022/01/31 04:46:45;;;;;;;12.30;4.37;;;8.40;55.00;;;;;;4967622;28;20458;-43
2022/01/31 04:49:11;;;;;;;7.00;3.83;;;8.50;54.90;;;;;;4967830;28;21155;-42
2022/01/31 04:51:37;;;;;;;9.63;4.60;;;8.50;55.00;;;;;;4967775;28;20470;-42
2022/01/31 04:54:03;;;;;;;7.43;4.60;;;8.40;55.20;;;;;;4967729;28;20538;-42
2022/01/31 04:56:28;;;;;;;12.10;4.60;;;8.50;55.20;;;;;;4967970;28;20215;-42
2022/01/31 04:58:54;;;;;;;7.73;4.73;;;8.20;55.50;;;;;;4969239;28;20195;-42
2022/01/31 05:01:20;;;;;;;9.97;5.27;;;8.00;56.00;;;;;;4966319;28;20202;-43
2022/01/31 05:03:46;;;;;;;10.60;5.03;;;7.90;56.30;;;;;;4968335;28;20266;-42
2022/01/31 05:06:15;;;;;;;9.33;4.73;;;8.00;56.60;;;;;;4968031;28;20195;-42
2022/01/31 05:08:41;;;;;;;11.20;4.03;;;8.00;56.60;;;;;;4971966;28;20446;-42
2022/01/31 05:11:11;;;;;;;7.43;4.40;;;8.10;56.40;;;;;;4971144;28;20474;-42
2022/01/31 05:13:37;;;;;;;6.20;3.70;;;8.00;56.40;;;;;;4967998;28;20199;-42
2022/01/31 05:16:06;;;;;;;8.77;3.70;;;8.20;56.50;;;;;;4974774;28;21009;-42
2022/01/31 05:18:33;;;;;;;14.63;4.20;;;8.10;56.40;;;;;;4972031;28;21834;-42
2022/01/31 05:20:58;;;;;;;8.67;4.03;;;7.90;56.80;;;;;;4972645;28;20922;-42
2022/01/31 05:23:24;;;;;;;9.87;4.50;;;8.00;57.00;;;;;;4971668;28;20474;-42
2022/01/31 05:25:50;;;;;;;8.97;3.90;;;7.90;57.10;;;;;;4971781;28;20585;-42
2022/01/31 05:28:15;;;;;;;8.20;3.93;;;7.80;57.10;;;;;;4970131;28;20187;-42
2022/01/31 05:30:41;;;;;;;9.40;4.63;;;7.70;57.40;;;;;;4970883;28;20195;-42
2022/01/31 05:33:06;;;;;;;12.10;3.87;;;7.80;57.60;;;;;;4970895;28;20242;-42
2022/01/31 05:35:32;;;;;;;6.47;3.90;;;7.80;57.60;;;;;;4971788;28;20625;-42
2022/01/31 05:37:58;;;;;;;4.90;3.50;;;7.80;57.50;;;;;;4969669;28;20253;-42
2022/01/31 05:40:24;;;;;;;6.13;3.77;;;7.70;57.60;;;;;;4974117;28;20243;-42
2022/01/31 05:42:49;;;;;;;7.30;3.80;;;7.50;58.10;;;;;;4971236;28;20551;-42
2022/01/31 05:45:15;;;;;;;6.80;3.27;;;7.50;58.10;;;;;;4971275;28;20278;-42
2022/01/31 05:47:41;;;;;;;11.03;3.70;;;7.70;58.20;;;;;;4970293;28;20544;-42
2022/01/31 05:50:07;;;;;;;7.10;3.23;;;7.70;57.90;;;;;;4970212;28;20199;-42
2022/01/31 05:52:33;;;;;;;6.73;3.30;;;7.70;57.90;;;;;;4969897;28;20643;-42
2022/01/31 05:54:59;;;;;;;7.50;3.17;;;7.60;57.90;;;;;;4972003;28;20438;-42
2022/01/31 05:57:25;;;;;;;6.40;3.50;;;7.40;58.70;;;;;;4968778;28;20482;-42
2022/01/31 05:59:51;;;;;;;7.87;3.70;;;7.40;58.50;;;;;;4973905;28;20261;-43
2022/01/31 06:02:17;;;;;;;5.90;3.43;;;7.40;59.00;;;;;;4971123;28;20202;-42
2022/01/31 06:04:43;;;;;;;6.37;3.33;;;7.60;58.50;;;;;;4977465;28;20195;-42
2022/01/31 06:07:08;;;;;;;9.10;3.10;;;7.30;58.30;;;;;;4969505;28;20948;-42
2022/01/31 06:09:34;;;;;;;3.83;2.70;;;7.30;58.50;;;;;;4969609;28;20199;-42
2022/01/31 06:12:02;;;;;;;4.63;2.70;;;7.40;58.70;;;;;;4971025;28;20258;-42
2022/01/31 06:14:29;;;;;;;12.13;4.20;;;7.30;59.10;;;;;;4969831;28;20199;-42
2022/01/31 06:16:54;;;;;;;6.07;3.23;;;7.20;59.40;;;;;;4969804;28;20553;-42
2022/01/31 06:19:20;;;;;;;7.63;2.97;;;7.50;59.10;;;;;;4970946;28;20443;-42
2022/01/31 06:21:46;;;;;;;4.70;2.93;;;7.30;59.40;;;;;;4971927;28;20200;-42
2022/01/31 06:24:14;;;;;;;6.70;3.20;;;7.50;59.60;;;;;;4968950;28;20191;-42
2022/01/31 06:26:40;;;;;;;5.30;3.37;;;7.30;59.60;;;;;;4971568;28;20667;-42
2022/01/31 06:29:06;;;;;;;5.03;2.80;;;7.30;60.40;;;;;;4971194;28;20474;-42
2022/01/31 06:31:32;;;;;;;8.77;2.90;;;7.50;60.90;;;;;;4968138;28;20627;-42
2022/01/31 06:33:59;;;;;;;9.73;3.50;;;7.40;61.30;;;;;;4970834;28;20202;-43
2022/01/31 06:36:25;;;;;;;5.80;3.20;;;7.50;61.40;;;;;;4971145;28;20481;-42
2022/01/31 06:38:51;;;;;;;7.83;3.00;;;7.60;61.20;;;;;;4968692;28;20435;-42
2022/01/31 06:41:18;;;;;;;5.63;3.03;;;7.40;62.30;;;;;;4968923;28;20266;-42
2022/01/31 06:43:45;;;;;;;8.40;3.23;;;7.20;62.70;;;;;;4968739;28;20562;-42
2022/01/31 06:46:12;;;;;;;4.73;2.83;;;7.00;63.50;;;;;;4971270;28;20449;-42
2022/01/31 06:48:37;;;;;;;4.10;3.00;;;7.10;64.60;;;;;;4972627;28;20477;-42
2022/01/31 06:51:03;;;;;;;9.87;3.17;;;7.30;64.90;;;;;;4971197;28;20471;-42
2022/01/31 06:53:29;;;;;;;8.87;3.13;;;7.30;65.20;;;;;;4971825;28;20199;-42
2022/01/31 06:55:56;;;;;;;10.33;3.20;;;7.20;65.90;;;;;;4975690;28;20250;-42
2022/01/31 06:58:22;;;;;;;5.67;3.47;;;7.40;66.10;;;;;;4975061;28;20902;-42
2022/01/31 07:00:48;;;;;;;7.70;2.93;;;7.50;65.60;;;;;;4979373;28;20480;-42
2022/01/31 07:03:14;;;;;;;5.47;3.10;;;7.50;65.80;;;;;;4973321;28;20435;-42
2022/01/31 07:05:41;;;;;;;6.73;3.00;;;7.80;65.70;;;;;;4973315;28;20283;-42
2022/01/31 07:08:06;;;;;;;8.20;3.03;;;8.00;65.60;;;;;;4973289;28;20219;-42
2022/01/31 07:10:33;;;;;;;6.70;3.53;;;8.10;65.20;;;;;;4979184;28;20776;-42
2022/01/31 07:12:59;;;;;;;8.60;3.87;;;8.00;65.00;;;;;;4972812;28;20195;-42
2022/01/31 07:15:25;;;;;;;5.40;3.07;;;8.20;64.70;;;;;;4977871;28;20500;-42
2022/01/31 07:17:50;;;;;;;8.87;4.03;;;8.00;64.20;;;;;;4973031;28;20576;-42
2022/01/31 07:20:34;;;;;;;8.50;3.33;;;8.30;64.30;;;;;;4971397;28;20504;-42
2022/01/31 07:23:03;;;;;;;9.23;3.13;;;8.10;63.90;;;;;;4966985;28;20198;-42
2022/01/31 07:25:35;;;;;;;10.27;3.20;;;8.20;64.30;;;;;;4979088;28;20434;-42
2022/01/31 07:28:12;;;;;;;5.30;3.27;;;8.20;64.40;;;;;;4974060;28;20848;-42
2022/01/31 07:30:39;;;;;;;8.90;4.50;;;8.30;64.70;;;;;;4976327;28;20473;-42
2022/01/31 07:33:09;;;;;;;12.17;4.33;;;8.30;64.00;;;;;;4972538;28;20430;-42
2022/01/31 07:35:36;;;;;;;5.60;2.90;;;8.00;64.50;;;;;;4973162;28;20439;-42
2022/01/31 07:38:02;;;;;;;10.97;3.57;;;8.10;65.00;;;;;;4974046;28;20499;-42
2022/01/31 07:40:28;;;;;;;8.60;3.97;;;8.30;64.80;;;;;;4978700;28;20524;-42
2022/01/31 07:42:54;;;;;;;6.73;3.00;;;8.20;64.50;;;;;;4978976;28;20801;-42
2022/01/31 07:45:20;;;;;;;12.23;3.50;;;8.30;64.80;;;;;;4972633;28;20442;-42
2022/01/31 07:47:45;;;;;;;4.57;3.33;;;8.20;64.80;;;;;;4965636;28;20192;-42
2022/01/31 07:50:13;;;;;;;6.23;3.60;;;8.10;64.70;;;;;;4975980;28;20448;-42
2022/01/31 07:52:39;;;;;;;7.87;3.53;;;8.00;65.30;;;;;;4974483;28;20655;-42
2022/01/31 07:55:05;;;;;;;5.63;3.40;;;7.90;66.20;;;;;;4971035;28;20525;-42
2022/01/31 07:57:31;;;;;;;9.30;3.77;;;8.10;66.40;;;;;;4973280;28;20516;-42
2022/01/31 07:59:56;;;;;;;9.50;3.80;;;8.20;65.80;;;;;;4972790;28;20442;-42
2022/01/31 08:02:22;;;;;;;5.27;3.20;;;8.30;65.70;;;;;;4979088;28;20192;-42
2022/01/31 08:04:48;;;;;;;7.53;3.33;;;8.50;65.40;;;;;;4975305;28;20192;-42
2022/01/31 08:07:14;;;;;;;4.80;3.00;;;8.50;64.80;;;;;;4969984;28;20283;-43
2022/01/31 08:09:40;;;;;;;5.30;2.93;;;8.60;65.00;;;;;;4958958;28;20270;-43
2022/01/31 08:12:06;;;;;;;8.63;3.10;;;8.70;64.30;;;;;;4979997;28;20844;-43
2022/01/31 08:14:32;;;;;;;4.67;3.10;;;8.80;64.30;;;;;;4964076;28;20836;-43
2022/01/31 08:16:57;;;;;;;5.73;3.50;;;8.70;64.30;;;;;;4975637;28;20482;-43
2022/01/31 08:19:23;;;;;;;4.90;2.60;;;8.60;64.90;;;;;;4972561;28;20505;-43
2022/01/31 08:21:49;;;;;;;4.33;2.67;;;8.60;65.40;;;;;;4974220;28;20218;-42
2022/01/31 08:24:14;;;;;;;9.00;2.47;;;8.40;65.40;;;;;;4971080;28;20195;-43
2022/01/31 08:26:40;;;;;;;7.53;2.30;;;8.40;66.20;;;;;;4965090;28;20281;-42
2022/01/31 08:32:09;;;;;;;3.53;1.60;;;8.40;66.60;;;;;;4965875;28;20438;-45
2022/01/31 08:37:20;;;;;;;5.10;1.97;;;8.50;66.60;;;;;;4973051;28;20524;-45
2022/01/31 08:39:46;;;;;;;1.40;1.20;;;8.60;66.10;;;;;;4972502;28;20474;-44
2022/01/31 08:42:13;;;;;;;1.67;1.00;;;8.50;65.80;;;;;;4981585;28;20865;-43
2022/01/31 08:44:39;;;;;;;1.30;1.20;;;8.30;65.90;;;;;;4982934;28;20957;-43
2022/01/31 08:47:05;;;;;;;0.80;0.73;;;8.00;65.90;;;;;;4978357;28;20462;-43
2022/01/31 08:49:35;;;;;;;1.00;0.90;;;7.90;66.70;;;;;;4992305;28;20472;-43
2022/01/31 08:52:01;;;;;;;2.20;0.80;;;8.10;66.90;;;;;;4977583;28;20223;-43
2022/01/31 08:54:26;;;;;;;1.20;0.90;;;7.90;66.20;;;;;;4980468;28;20796;-43
2022/01/31 08:56:52;;;;;;;1.53;1.17;;;7.70;66.30;;;;;;4979393;28;20230;-43
2022/01/31 08:59:18;;;;;;;1.67;1.00;;;7.80;66.90;;;;;;4977742;28;20191;-44
2022/01/31 09:01:52;;;;;;;1.40;1.10;;;7.80;66.20;;;;;;4976686;28;20253;-43
2022/01/31 09:04:32;;;;;;;1.87;1.30;;;7.90;66.60;;;;;;4976646;28;22087;-43
2022/01/31 09:06:58;;;;;;;1.87;0.93;;;7.90;65.90;;;;;;4981664;28;20453;-43
2022/01/31 09:09:24;;;;;;;1.90;1.00;;;7.90;66.00;;;;;;4983306;28;20880;-44
2022/01/31 09:11:50;;;;;;;6.53;1.40;;;7.90;66.00;;;;;;4985022;28;20478;-44
2022/01/31 09:14:15;;;;;;;1.03;0.93;;;8.20;65.50;;;;;;4986133;28;20774;-43
2022/01/31 09:16:41;;;;;;;1.77;1.50;;;8.30;64.30;;;;;;4990680;28;20214;-44
2022/01/31 09:19:07;;;;;;;1.97;1.13;;;8.30;64.30;;;;;;4981200;28;20198;-43
2022/01/31 09:21:34;;;;;;;1.30;1.20;;;8.40;64.40;;;;;;4978993;28;20209;-44
2022/01/31 09:23:59;;;;;;;3.80;1.20;;;8.50;63.70;;;;;;4978349;28;20194;-44
2022/01/31 09:26:26;;;;;;;1.73;1.40;;;8.60;63.40;;;;;;4977894;28;20442;-43
2022/01/31 09:28:53;;;;;;;1.10;1.00;;;8.60;63.30;;;;;;4976794;28;20206;-44
2022/01/31 09:31:19;;;;;;;1.30;1.13;;;8.70;63.70;;;;;;4977815;28;20439;-44
2022/01/31 09:33:46;;;;;;;1.40;1.13;;;8.80;62.80;;;;;;4976518;28;20443;-45
2022/01/31 09:36:11;;;;;;;4.60;1.20;;;9.00;62.80;;;;;;4989073;28;20437;-45
2022/01/31 09:38:37;;;;;;;1.83;1.20;;;9.20;61.20;;;;;;4973738;28;20963;-44
2022/01/31 09:41:02;;;;;;;1.73;1.10;;;9.10;60.70;;;;;;4974763;28;20235;-44
2022/01/31 09:46:45;;;;;;;1.30;1.20;;;8.90;59.80;;;;;;4953737;28;20214;-44
2022/01/31 09:49:05;;;;;;;4.77;1.40;;;8.70;59.50;;;;;;4978089;28;20813;-45
2022/01/31 09:51:32;;;;;;;3.27;1.80;;;8.60;60.00;;;;;;4976301;28;20446;-45
2022/01/31 09:54:03;;;;;;;4.77;1.30;;;8.70;59.80;;;;;;4974224;28;20278;-45
2022/01/31 09:56:37;;;;;;;1.53;1.30;;;8.70;59.50;;;;;;4972505;28;20490;-47
2022/01/31 09:59:04;;;;;;;1.50;1.40;;;8.60;59.30;;;;;;4974296;28;20438;-45
2022/01/31 10:01:32;;;;;;;2.73;1.30;;;8.80;59.60;;;;;;4973707;28;20797;-45
2022/01/31 10:04:01;;;;;;;5.03;1.00;;;8.40;58.80;;;;;;4970524;28;20455;-45
2022/01/31 10:06:29;;;;;;;2.70;1.60;;;8.40;59.10;;;;;;4971991;28;20462;-44
2022/01/31 10:12:31;;;;;;;2.80;1.40;;;8.40;59.10;;;;;;5093908;23;20567;-44
2022/01/31 10:17:45;;;;;;;1.53;1.20;;;8.50;59.60;;;;;;4985424;28;20675;-44
2022/01/31 10:20:22;;;;;;;3.00;1.40;;;8.40;59.40;;;;;;4988385;28;20442;-44
2022/01/31 10:22:48;;;;;;;3.10;1.20;;;8.40;59.30;;;;;;4993925;28;20608;-44
2022/01/31 10:25:16;;;;;;;2.40;1.10;;;8.50;59.30;;;;;;4991611;28;20988;-45
2022/01/31 10:27:50;;;;;;;2.33;1.33;;;8.70;59.30;;;;;;4988726;28;20205;-44
2022/01/31 10:30:25;;;;;;;4.33;1.30;;;8.70;59.30;;;;;;4991319;28;20445;-44
2022/01/31 10:32:53;;;;;;;2.47;1.53;;;8.70;58.70;;;;;;4986392;28;20493;-46
2022/01/31 10:35:24;;;;;;;2.23;1.40;;;8.80;58.80;;;;;;4991025;28;20446;-45
2022/01/31 10:37:56;;;;;;;5.23;1.40;;;9.10;58.70;;;;;;4989217;28;20485;-44
2022/01/31 10:54:28;;;;;;;3.90;1.70;;;8.50;58.50;;;;;;4976417;28;20443;-44
2022/01/31 10:56:47;;;;;;;3.80;2.50;;;8.70;58.60;;;;;;4983899;28;20584;-44
2022/01/31 10:59:15;;;;;;;2.10;1.40;;;8.90;58.70;;;;;;4991240;28;21050;-44
2022/01/31 11:01:45;;;;;;;3.07;1.50;;;8.70;57.60;;;;;;4990430;28;20430;-45
2022/01/31 11:04:15;;;;;;;3.50;1.87;;;8.90;57.90;;;;;;4997901;28;20442;-45
2022/01/31 11:06:42;;;;;;;1.67;1.40;;;8.70;57.00;;;;;;4990559;28;20549;-44
2022/01/31 11:09:16;;;;;;;3.70;1.80;;;8.70;57.30;;;;;;4992622;28;21257;-44
2022/01/31 11:11:44;;;;;;;5.20;1.90;;;9.00;57.50;;;;;;4991934;28;20473;-44
2022/01/31 11:14:11;;;;;;;2.73;1.87;;;9.00;56.70;;;;;;4992753;28;20449;-45
2022/01/31 11:16:40;;;;;;;4.40;2.70;;;9.20;56.90;;;;;;4988460;28;20872;-44
2022/01/31 11:19:08;;;;;;;2.47;1.60;;;9.20;56.80;;;;;;4988727;28;20433;-45
2022/01/31 11:21:37;;;;;;;4.23;1.80;;;9.30;56.50;;;;;;4990397;28;20449;-44
2022/01/31 11:24:11;;;;;;;3.70;1.80;;;9.20;56.60;;;;;;4992925;28;20508;-46
2022/01/31 11:26:39;;;;;;;3.17;1.33;;;9.00;56.50;;;;;;4985366;28;20947;-44
2022/01/31 11:29:07;;;;;;;2.20;1.60;;;8.90;56.30;;;;;;4988314;28;20444;-46
2022/01/31 11:31:38;;;;;;;3.57;1.67;;;8.90;56.90;;;;;;4990947;28;20434;-44
2022/01/31 11:34:05;;;;;;;3.73;1.40;;;8.90;56.60;;;;;;4983994;28;20930;-44
2022/01/31 11:36:34;;;;;;;3.07;1.57;;;8.80;56.60;;;;;;5001400;28;20518;-44
2022/01/31 11:39:00;;;;;;;4.80;1.80;;;8.90;56.40;;;;;;4984971;28;20815;-44
2022/01/31 11:41:27;;;;;;;3.90;1.50;;;9.00;56.50;;;;;;4989989;28;20497;-46
2022/01/31 11:44:10;;;;;;;1.83;1.00;;;8.90;56.40;;;;;;4987019;28;20438;-45
2022/01/31 11:46:40;;;;;;;4.43;1.70;;;8.70;56.50;;;;;;4977484;28;20988;-44
2022/01/31 11:49:10;;;;;;;3.27;1.20;;;8.50;56.80;;;;;;4991454;28;20438;-44
2022/01/31 11:52:08;;;;;;;3.63;1.33;;;8.40;57.70;;;;;;4987972;28;20442;-44
2022/01/31 11:54:55;;;;;;;4.27;1.60;;;8.40;58.30;;;;;;4989045;28;20449;-44
2022/01/31 11:57:29;;;;;;;2.73;1.60;;;8.50;58.40;;;;;;4994459;28;21029;-45
2022/01/31 11:59:57;;;;;;;1.40;1.00;;;8.70;58.70;;;;;;4990598;28;20441;-45
2022/01/31 12:02:25;;;;;;;2.50;1.53;;;8.70;58.70;;;;;;4988538;28;20446;-44
2022/01/31 12:04:52;;;;;;;4.33;1.37;;;8.70;59.00;;;;;;4989380;28;20446;-45
2022/01/31 12:07:38;;;;;;;1.50;1.03;;;8.70;58.70;;;;;;4993587;28;20436;-45
2022/01/31 12:10:09;;;;;;;1.20;1.10;;;8.50;58.70;;;;;;4992824;28;20441;-45
2022/01/31 12:16:24;;;;;;;2.70;1.43;;;8.40;59.20;;;;;;4995341;28;20441;-44
2022/01/31 12:24:07;;;;;;;1.37;1.27;;;8.10;59.00;;;;;;4996999;28;20545;-44
2022/01/31 12:26:32;;;;;;;8.10;1.37;;;8.30;59.80;;;;;;4983257;28;20544;-44
2022/01/31 12:29:15;;;;;;;2.83;1.20;;;8.10;59.10;;;;;;4999546;28;20528;-44
2022/01/31 12:31:48;;;;;;;3.87;1.30;;;8.20;59.30;;;;;;4991035;28;20321;-45
2022/01/31 12:34:20;;;;;;;2.57;1.43;;;8.40;58.90;;;;;;4991364;28;20446;-44
2022/01/31 12:36:55;;;;;;;3.50;1.37;;;8.30;58.70;;;;;;4989830;28;21084;-44
2022/01/31 12:39:39;;;;;;;4.63;1.63;;;8.40;58.60;;;;;;4991437;28;20452;-45
2022/01/31 12:45:43;;;;;;;1.77;1.30;;;8.60;58.90;;;;;;4988742;28;20453;-46
2022/01/31 12:50:36;;;;;;;1.60;1.30;;;8.60;59.50;;;;;;4994404;28;20818;-44
2022/01/31 12:53:06;;;;;;;3.80;1.33;;;8.60;59.80;;;;;;4985324;28;20248;-44
2022/01/31 12:55:33;;;;;;;2.63;1.63;;;8.40;59.40;;;;;;4989679;28;20473;-44
2022/01/31 12:57:59;;;;;;;5.23;1.50;;;8.50;60.10;;;;;;4989364;28;20531;-45
2022/01/31 13:00:43;;;;;;;3.27;1.83;;;8.30;59.80;;;;;;4989326;28;20817;-45
2022/01/31 13:03:09;;;;;;;5.00;1.80;;;8.30;60.10;;;;;;4988385;28;20504;-45
2022/01/31 13:05:39;;;;;;;4.70;1.77;;;8.60;60.00;;;;;;4985679;28;20454;-44
2022/01/31 13:08:19;;;;;;;4.03;1.23;;;8.70;60.20;;;;;;4989661;28;20449;-45
2022/01/31 13:10:44;;;;;;;4.20;1.60;;;8.50;60.20;;;;;;4989736;28;20461;-45
2022/01/31 13:13:10;;;;;;;2.40;1.30;;;8.50;60.40;;;;;;4987880;28;21250;-45
2022/01/31 13:15:36;;;;;;;3.10;1.83;;;8.30;60.50;;;;;;4988145;28;20214;-44
2022/01/31 13:18:06;;;;;;;1.70;1.10;;;8.60;61.40;;;;;;4989419;28;20265;-45
2022/01/31 13:20:33;;;;;;;1.57;1.47;;;8.70;60.90;;;;;;4991145;28;20198;-45
2022/01/31 13:23:00;;;;;;;3.00;1.23;;;8.60;60.10;;;;;;4978189;28;20422;-45
2022/01/31 13:25:27;;;;;;;5.13;2.13;;;8.20;60.70;;;;;;4989806;28;20990;-44
2022/01/31 13:27:53;;;;;;;2.53;1.60;;;8.30;61.40;;;;;;4996004;28;20437;-45
2022/01/31 13:30:24;;;;;;;2.00;1.53;;;8.10;61.90;;;;;;4994511;28;20434;-45
2022/01/31 13:32:51;;;;;;;3.33;1.50;;;8.20;61.90;;;;;;4994216;28;20815;-45
2022/01/31 13:35:20;;;;;;;4.67;1.50;;;8.20;62.10;;;;;;4993992;28;20857;-44
2022/01/31 13:37:55;;;;;;;3.17;1.23;;;8.20;62.40;;;;;;4993291;28;20899;-44
2022/01/31 13:40:32;;;;;;;2.50;1.60;;;8.20;62.60;;;;;;4994631;28;20441;-45
2022/01/31 13:43:12;;;;;;;5.80;1.70;;;8.20;62.20;;;;;;4994084;28;20514;-45
2022/01/31 13:51:34;;;;;;;3.97;2.17;;;8.50;61.60;;;;;;4988725;28;20449;-45